Interlaken, New York
Current Conditions -  °F | °C
As of 1:56 AM on Wednesday 22 Oct 2014 (Local Time) from KITH Reporting Station
Haze Haze  
Wind Chill: 47°   Ceiling: 400
Heat Index: 49°   Visibility: 4mi
Dew Point: 49°   Wind: 5mph
Humidity: 100%   Direction: 330°NNW
Pressure: 30.01"   Gusts: NA
Location:  42.62°N, 76.72°W
Report Text: KITH 220556Z AUTO 33004KT 4SM BR OVC004 09/09 A3001 RMK AO2 51003 T00940094 10105 20094 SLP166
Loading
Personal Weather Stations






























Interactive Weather Map
Tropical Storm Tracking
New forecast layout! Learn more

10-Day Weather Forecast

Advertisements
Track Severe Weather on mobile